Latest Coastal Weather Observations for Low Isles

IDQ60701

Issued at 11:21 pm EST Sunday 7 February 2016 (issued every 10 minutes, with the page automatically refreshed every 10 minutes)

About coastal observations | Map of coastal stations | Coastal observations for QLD | Marine services | Other Formats
Station Details ID: 031037 Name: LOW ISLES LIGHTHOUSE Lat: -16.38 Lon: 145.56 Height: 2.9 m
Data from the previous 72 hours. | See also: Recent months at Low Isles
Date/Time
EST
Temp

°C
Wind Pressure Rain
since 9am
mm
Weather Cloud Vis
km
Sea
Height
m
Swell
Dir
 
Speed
knots
Gust
knots
hPa Trend Height
m
Period
s
Dir
07/11:00pm 30.1 N 3 4 1008.1 - 0.0 - - - - - - -
07/10:30pm 30.0 N 5 6 1008.3 - 0.0 - - - - - - -
07/10:00pm 30.0 N 4 5 1008.1 - 0.0 - - - - - - -
07/09:30pm 30.0 NNE 1 5 1008.1 - 0.0 - - - - - - -
07/09:00pm 30.1 CALM 0 0 1007.8 - 0.0 - - - - - - -
07/08:30pm 30.1 NNE 2 4 1007.2 - 0.0 - - - - - - -
07/08:00pm 30.4 N 5 6 1007.0 - 0.0 - - - - - - -
07/07:30pm 30.8 NNE 4 6 1006.6 - 0.0 - - - - - - -
07/07:00pm 31.2 NNE 5 6 1006.3 - 0.0 - - - - - - -
07/06:30pm 31.9 NNE 6 7 1006.0 - 0.0 - - - - - - -
07/06:00pm 32.6 NE 6 7 1005.6 - 0.0 - - - - - - -
07/05:30pm 33.2 ENE 7 8 1005.0 - 0.0 - - - - - - -
07/05:00pm 33.8 NE 9 10 1004.7 - 0.0 - - - - - - -
07/04:30pm 35.3 NE 7 7 1004.1 - 0.0 - - - - - - -
07/04:00pm 35.4 NE 4 6 1004.1 - 0.0 - - - - - - -
07/03:30pm 36.0 NNE 6 7 1003.9 - 0.0 - - - - - - -
07/03:00pm 35.0 N 12 13 1004.0 - 0.0 - - - - - - -
07/02:30pm 35.8 NNE 11 12 1004.2 - 0.0 - - - - - - -
07/02:00pm 36.9 NNE 12 13 1004.6 - 0.0 - - - - - - -
07/01:30pm 35.6 NE 13 14 1005.0 - 0.0 - - - - - - -
07/01:00pm 35.6 NE 11 12 1005.4 - 0.0 - - - - - - -
07/12:30pm 36.3 NE 10 11 1005.9 - 0.0 - - - - - - -
07/12:00pm 36.4 NNE 8 9 1006.1 - 0.0 - - - - - - -
07/11:30am 35.5 NNE 6 7 1006.3 - 0.0 - - - - - - -
07/11:00am 33.7 NNW 3 4 1006.5 - 0.0 - - - - - - -
07/10:30am 31.2 W 4 4 1006.6 - 0.0 - - - - - - -
07/10:00am 30.0 W 6 7 1006.7 - 0.0 - - - - - - -
07/09:30am 29.8 W 7 7 1006.7 - 0.0 - - - - - - -
07/09:00am 29.4 W 6 7 1006.6 - 0.0 Haze Mostly cloudy 25 - - - -
07/08:30am 29.0 W 7 8 1006.6 - 0.0 - - - - - - -
07/08:00am 28.8 W 7 8 1006.5 - 0.0 - - - - - - -
07/07:30am 28.9 W 7 8 1006.4 - 0.0 - - - - - - -
07/07:00am 28.8 W 8 9 1006.1 - 0.0 - - - - - - -
07/06:30am 28.6 WNW 11 13 1005.7 - 0.0 - - - - - - -
07/06:00am 28.4 WNW 8 9 1005.1 - 0.0 - - - - - - -
07/05:30am 28.5 W 10 11 1004.6 - 0.0 - - - - - - -
07/05:00am 28.9 W 8 10 1004.1 - 0.0 - - - - - - -
07/04:30am 28.8 W 7 8 1003.9 - 0.0 - - - - - - -
07/04:00am 29.2 W 10 11 1003.9 - 0.0 - - - - - - -
07/03:30am 28.9 W 12 15 1003.7 - 0.0 - - - - - - -
07/03:00am 28.5 W 9 12 1003.8 - 0.0 - - - - - - -
07/02:30am 28.6 W 8 10 1004.1 - 0.0 - - - - - - -
07/02:00am 28.6 W 11 12 1004.3 - 0.0 - - - - - - -
07/01:30am 28.7 W 9 10 1004.5 - 0.0 - - - - - - -
07/01:00am 28.6 W 12 13 1004.9 - 0.0 - - - - - - -
07/12:30am 28.8 W 10 11 1005.1 - 0.0 - - - - - - -
07/12:00am 28.8 W 10 11 1005.5 - 0.0 - - - - - - -
 
Date/Time
EST
Temp

°C
Wind Pressure Rain
since 9am
mm
Weather Cloud Vis
km
Sea
Height
m
Swell
Dir
 
Speed
knots
Gust
knots
hPa Trend Height
m
Period
s
Dir
06/11:30pm 29.2 WSW 6 7 1005.9 - 0.0 - - - - - - -
06/11:00pm 29.3 WNW 6 6 1005.9 - 0.0 - - - - - - -
06/10:30pm 29.6 WNW 5 7 1006.2 - 0.0 - - - - - - -
06/10:00pm 29.8 WNW 6 8 1005.9 - 0.0 - - - - - - -
06/09:30pm 29.6 W 1 3 1005.3 - 0.0 - - - - - - -
06/09:00pm 29.8 WNW 6 7 1004.8 - 0.0 - - - - - - -
06/08:30pm 29.9 N 8 9 1004.3 - 0.0 - - - - - - -
06/08:00pm 29.9 NNW 11 11 1004.1 - 0.0 - - - - - - -
06/07:30pm 29.6 N 13 15 1003.8 - 0.0 - - - - - - -
06/07:00pm 30.2 N 11 13 1003.4 - 0.0 - - - - - - -
06/06:30pm 30.6 N 16 19 1002.9 - 0.0 - - - - - - -
06/06:00pm 30.7 N 14 17 1002.4 - 0.0 - - - - - - -
06/05:30pm 31.1 N 15 17 1002.2 - 0.0 - - - - - - -
06/05:00pm 31.9 N 15 16 1001.5 - 0.0 - - - - - - -
06/04:30pm 32.0 N 11 13 1001.4 - 0.0 - - - - - - -
06/04:00pm 32.2 N 9 11 1001.4 - 0.0 - - - - - - -
06/03:30pm 33.0 N 11 12 1001.5 - 0.0 - - - - - - -
06/03:00pm 33.6 N 9 10 1001.7 - 0.0 - - - - - - -
06/02:30pm 34.5 N 10 11 1002.1 - 0.0 - - - - - - -
06/02:00pm 34.5 NNE 12 13 1002.4 - 0.0 - - - - - - -
06/01:30pm 35.6 NNE 12 13 1002.4 - 0.0 - - - - - - -
06/01:00pm 35.3 NNE 11 14 1002.6 - 0.0 - - - - - - -
06/12:30pm 37.0 NNE 10 11 1002.9 - 0.0 - - - - - - -
06/12:00pm 35.9 NNE 7 7 1003.1 - 0.0 - - - - - - -
06/11:30am 35.1 N 7 8 1003.5 - 0.0 - - - - - - -
06/11:00am 34.2 N 4 5 1003.9 - 0.0 - - - - - - -
06/10:30am 32.3 W 2 3 1004.0 - 0.0 - - - - - - -
06/10:00am 30.8 SSW 4 5 1004.3 - 0.0 - - - - - - -
06/09:30am 30.2 WSW 5 6 1004.1 - 0.0 - - - - - - -
06/09:00am 29.6 W 6 8 1003.9 - 0.2 Fine Cloudy 35 - - - -
06/08:30am 28.7 W 6 8 1003.9 - 0.2 - - - - - - -
06/08:00am 28.2 WSW 6 6 1003.6 - 0.2 - - - - - - -
06/07:30am 28.4 SW 7 7 1003.4 - 0.2 - - - - - - -
06/07:00am 28.4 WSW 5 6 1002.9 - 0.2 - - - - - - -
06/06:30am 28.2 W 7 8 1002.5 - 0.2 - - - - - - -
06/06:00am 28.3 W 6 7 1002.0 - 0.2 - - - - - - -
06/05:30am 28.3 WSW 6 7 1002.0 - 0.2 - - - - - - -
06/05:00am 28.5 WSW 10 11 1001.8 - 0.2 - - - - - - -
06/04:30am 28.6 W 8 9 1001.4 - 0.2 - - - - - - -
06/04:00am 28.1 W 7 8 1001.3 - 0.2 - - - - - - -
06/03:30am 28.1 W 9 11 1001.2 - 0.2 - - - - - - -
06/03:00am 28.5 WNW 11 13 1001.2 - 0.2 - - - - - - -
06/02:30am 28.3 NW 11 13 1001.3 - 0.2 - - - - - - -
06/02:00am 28.1 WNW 8 10 1001.6 - 0.2 - - - - - - -
06/01:30am 28.4 W 9 9 1001.6 - 0.2 - - - - - - -
06/01:00am 28.7 WNW 12 13 1002.1 - 0.2 - - - - - - -
06/12:30am 29.0 WNW 13 14 1002.6 - 0.2 - - - - - - -
06/12:00am 28.4 W 8 11 1003.0 - 0.2 - - - - - - -
 
Date/Time
EST
Temp

°C
Wind Pressure Rain
since 9am
mm
Weather Cloud Vis
km
Sea
Height
m
Swell
Dir
 
Speed
knots
Gust
knots
hPa Trend Height
m
Period
s
Dir
05/11:30pm 28.9 SSW 8 9 1003.0 - 0.2 - - - - - - -
05/11:00pm 28.9 W 9 11 1003.9 - 0.2 - - - - - - -
05/10:30pm 28.7 WNW 5 6 1004.3 - 0.2 - - - - - - -
05/10:00pm 29.0 WSW 7 7 1004.4 - 0.2 - - - - - - -
05/09:30pm 29.0 WSW 8 10 1003.8 - 0.2 - - - - - - -
05/09:00pm 29.0 N 5 5 1003.2 - 0.2 - - - - - - -
05/08:30pm 29.4 NNW 11 14 1003.5 - 0.2 - - - - - - -
05/08:00pm 29.6 N 18 21 1003.0 - 0.2 - - - - - - -
05/07:30pm 29.6 N 17 20 1002.4 - 0.2 - - - - - - -
05/07:00pm 29.9 NNW 17 21 1002.4 - 0.0 - - - - - - -
05/06:30pm 30.1 N 17 19 1001.3 - 0.0 - - - - - - -
05/06:00pm 30.2 N 18 21 1001.0 - 0.0 - - - - - - -
05/05:30pm 30.8 N 17 19 1000.8 - 0.0 - - - - - - -
05/05:00pm 31.1 N 18 22 1000.6 - 0.0 - - - - - - -
05/04:30pm 30.9 N 18 20 1000.5 - 0.0 - - - - - - -
05/04:00pm 31.0 N 19 21 1000.5 - 0.0 - - - - - - -
05/03:30pm 31.4 N 15 17 1000.8 - 0.0 - - - - - - -
05/03:00pm 31.9 N 15 17 1001.0 - 0.0 - - - - - - -
05/02:30pm 32.2 NNE 16 17 1001.3 - 0.0 - - - - - - -
05/02:00pm 33.2 NNE 14 16 1001.6 - 0.0 - - - - - - -
05/01:30pm 33.5 NNE 10 11 1002.0 - 0.0 - - - - - - -
05/01:00pm 33.6 NE 7 8 1002.2 - 0.0 - - - - - - -
05/12:30pm 33.6 ENE 6 7 1002.5 - 0.0 - - - - - - -
05/12:00pm 33.8 NE 4 5 1002.9 - 0.0 - - - - - - -
05/11:30am 33.1 E 3 5 1003.7 - 0.0 - - - - - - -
05/11:00am 31.0 WSW 5 6 1004.0 - 0.0 - - - - - - -
05/10:30am 30.6 W 8 10 1004.3 - 0.0 - - - - - - -
05/10:00am 30.4 W 12 13 1004.4 - 0.0 - - - - - - -
05/09:30am 30.5 WNW 14 17 1004.4 - 0.0 - - - - - - -
05/09:00am 30.1 WNW 13 15 1004.0 - 0.0 Fine Mostly cloudy 12 - - - -
05/08:30am 29.8 WNW 11 12 1003.9 - 0.0 - - - - - - -
05/08:00am 29.2 W 11 12 1003.8 - 0.0 - - - - - - -
05/07:30am 29.0 W 8 9 1003.5 - 0.0 - - - - - - -
05/07:00am 28.8 W 9 12 1003.5 - 0.0 - - - - - - -
05/06:30am 28.8 W 10 11 1003.1 - 0.0 - - - - - - -
05/06:00am 28.6 W 10 12 1002.8 - 0.0 - - - - - - -
05/05:30am 28.6 W 6 8 1002.4 - 0.0 - - - - - - -
05/05:00am 28.6 W 8 9 1002.0 - 0.0 - - - - - - -
05/04:30am 28.6 W 10 13 1002.2 - 0.0 - - - - - - -
05/04:00am 28.8 W 10 11 1002.2 - 0.0 - - - - - - -
05/03:30am 28.7 WNW 10 13 1002.0 - 0.0 - - - - - - -
05/03:00am 29.1 NW 8 8 1001.9 - 0.0 - - - - - - -
05/02:30am 29.1 NNW 13 16 1002.4 - 0.0 - - - - - - -
05/02:00am 28.8 NW 11 12 1002.8 - 0.0 - - - - - - -
05/01:30am 28.5 WNW 11 12 1003.2 - 0.0 - - - - - - -
05/01:00am 28.9 W 10 12 1003.5 - 0.0 - - - - - - -
05/12:30am 28.3 WSW 8 9 1003.8 - 0.0 - - - - - - -
05/12:00am 28.5 WSW 8 10 1004.1 - 0.0 - - - - - - -
 
Date/Time
EST
Temp

°C
Wind Pressure Rain
since 9am
mm
Weather Cloud Vis
km
Sea
Height
m
Swell
Dir
 
Speed
knots
Gust
knots
hPa Trend Height
m
Period
s
Dir
04/11:30pm 28.7 WSW 9 10 1004.5 - 0.0 - - - - - - -

Other Formats:

Comma delimited format used in spreadsheet applications
http://www.bom.gov.au/fwo/IDQ60701/IDQ60701.94285.axf

JavaScript Object Notation format (JSON) in row-major order
http://www.bom.gov.au/fwo/IDQ60701/IDQ60701.94285.json